createdAt,value
2023-04-25T00:01:37.130Z,3.80
2023-04-25T00:04:06.989Z,3.25
2023-04-25T00:06:37.265Z,4.05
2023-04-25T00:09:08.332Z,3.72
2023-04-25T00:11:36.590Z,3.80
2023-04-25T00:14:04.629Z,4.10
2023-04-25T00:16:35.054Z,3.60
2023-04-25T00:19:05.279Z,3.65
2023-04-25T00:21:33.567Z,3.30
2023-04-25T00:24:02.087Z,3.60
2023-04-25T00:26:30.081Z,4.00
2023-04-25T00:28:58.056Z,3.88
2023-04-25T00:31:26.071Z,3.83
2023-04-25T00:33:54.208Z,3.95
2023-04-25T00:36:23.649Z,4.10
2023-04-25T00:38:51.580Z,3.90
2023-04-25T00:41:20.636Z,4.03
2023-04-25T00:43:49.916Z,3.83
2023-04-25T00:46:17.964Z,3.57
2023-04-25T00:48:46.492Z,3.60
2023-04-25T00:51:18.672Z,3.60
2023-04-25T00:53:49.125Z,3.35
2023-04-25T00:56:17.941Z,3.53
2023-04-25T00:58:46.460Z,3.65
2023-04-25T01:01:15.173Z,3.30
2023-04-25T01:03:43.966Z,3.90
2023-04-25T01:06:12.684Z,3.13
2023-04-25T01:08:41.482Z,3.30
2023-04-25T01:11:10.904Z,3.38
2023-04-25T01:13:39.063Z,3.50
2023-04-25T01:16:07.468Z,3.80
2023-04-25T01:18:35.574Z,3.75
2023-04-25T01:21:09.027Z,3.55
2023-04-25T01:23:37.331Z,3.60
2023-04-25T01:26:05.828Z,3.43
2023-04-25T01:28:35.445Z,3.45
2023-04-25T01:31:03.876Z,3.87
2023-04-25T01:33:32.023Z,3.33
2023-04-25T01:36:00.224Z,4.15
2023-04-25T01:38:29.756Z,3.67
2023-04-25T01:40:57.998Z,3.50
2023-04-25T01:43:27.423Z,3.30
2023-04-25T01:45:55.511Z,3.00
2023-04-25T01:48:23.539Z,3.30
2023-04-25T01:50:51.577Z,2.90
2023-04-25T01:53:19.588Z,3.30
2023-04-25T01:55:48.846Z,2.60
2023-04-25T01:58:16.746Z,3.30
2023-04-25T02:00:44.654Z,3.28
2023-04-25T02:03:12.672Z,3.22
2023-04-25T02:05:41.572Z,3.40
2023-04-25T02:08:11.002Z,3.40
2023-04-25T02:10:39.082Z,2.88
2023-04-25T02:13:08.422Z,3.20
2023-04-25T02:15:36.437Z,3.20
2023-04-25T02:18:04.523Z,2.80
2023-04-25T02:20:32.906Z,3.28
2023-04-25T02:23:00.852Z,3.08
2023-04-25T02:25:29.124Z,3.15
2023-04-25T02:27:57.046Z,2.70
2023-04-25T02:30:26.410Z,3.25
2023-04-25T02:32:54.408Z,3.50
2023-04-25T02:35:22.464Z,3.10
2023-04-25T02:37:50.714Z,3.90
2023-04-25T02:40:18.648Z,3.22
2023-04-25T02:42:46.766Z,3.25
2023-04-25T02:45:14.822Z,3.30
2023-04-25T02:47:44.243Z,3.00
2023-04-25T02:50:12.287Z,3.10
2023-04-25T02:52:40.207Z,2.73
2023-04-25T02:55:08.897Z,3.30
2023-04-25T02:57:36.844Z,3.25
2023-04-25T03:00:06.741Z,3.35
2023-04-25T03:02:34.838Z,3.30
2023-04-25T03:05:04.500Z,3.50
2023-04-25T03:07:32.563Z,2.60
2023-04-25T03:10:00.783Z,2.85
2023-04-25T03:12:28.744Z,3.22
2023-04-25T03:14:56.645Z,3.40
2023-04-25T03:17:24.622Z,3.05
2023-04-25T03:19:52.553Z,3.47
2023-04-25T03:22:21.858Z,2.70
2023-04-25T03:24:49.754Z,2.90
2023-04-25T03:27:17.867Z,2.70
2023-04-25T03:29:45.853Z,2.90
2023-04-25T03:32:14.026Z,2.80
2023-04-25T03:34:42.251Z,2.50
2023-04-25T03:37:10.296Z,2.65
2023-04-25T03:39:39.843Z,2.60
2023-04-25T03:42:07.786Z,2.30
2023-04-25T03:44:35.680Z,2.20
2023-04-25T03:47:03.686Z,2.17
2023-04-25T03:49:32.087Z,2.75
2023-04-25T03:52:00.242Z,2.60
2023-04-25T03:54:28.262Z,2.50
2023-04-25T03:56:58.498Z,2.70
2023-04-25T03:59:27.112Z,2.50
2023-04-25T04:01:56.184Z,2.38
2023-04-25T04:04:24.287Z,2.90
2023-04-25T04:06:53.459Z,2.20
2023-04-25T04:09:21.544Z,2.50
2023-04-25T04:11:49.509Z,2.20
2023-04-25T04:14:18.781Z,2.20
2023-04-25T04:16:46.840Z,2.40
2023-04-25T04:19:14.955Z,2.47
2023-04-25T04:21:42.928Z,2.45
2023-04-25T04:24:11.377Z,2.17
2023-04-25T04:26:39.801Z,2.43
2023-04-25T04:29:08.074Z,2.15
2023-04-25T04:31:37.625Z,2.40
2023-04-25T04:34:05.809Z,2.40
2023-04-25T04:36:33.776Z,2.30
2023-04-25T04:39:02.181Z,1.98
2023-04-25T04:41:30.151Z,2.40
2023-04-25T04:43:58.110Z,2.40
2023-04-25T04:46:26.249Z,2.30
2023-04-25T04:48:57.270Z,1.83
2023-04-25T04:51:25.224Z,2.40
2023-04-25T04:53:53.456Z,1.90
2023-04-25T04:56:24.290Z,2.10
2023-04-25T04:58:52.296Z,2.20
2023-04-25T05:01:20.411Z,2.40
2023-04-25T05:03:48.640Z,1.63
2023-04-25T05:06:18.222Z,2.20
2023-04-25T05:08:46.201Z,2.20
2023-04-25T05:11:14.216Z,2.00
2023-04-25T05:13:42.110Z,1.85
2023-04-25T05:16:10.111Z,1.80
2023-04-25T05:18:38.118Z,1.92
2023-04-25T05:21:06.428Z,2.17
2023-04-25T05:23:35.976Z,2.40
2023-04-25T05:26:04.200Z,2.47
2023-04-25T05:28:32.205Z,2.50
2023-04-25T05:31:00.178Z,2.30
2023-04-25T05:33:28.072Z,2.50
2023-04-25T05:35:55.959Z,2.20
2023-04-25T05:38:23.938Z,2.38
2023-04-25T05:40:53.382Z,2.00
2023-04-25T05:43:21.316Z,2.70
2023-04-25T05:45:49.319Z,2.10
2023-04-25T05:48:17.317Z,2.17
2023-04-25T05:50:45.218Z,2.20
2023-04-25T05:53:13.147Z,2.78
2023-04-25T05:55:41.031Z,2.35
2023-04-25T05:58:10.462Z,2.00
2023-04-25T06:00:39.276Z,2.00
2023-04-25T06:03:10.563Z,2.00
2023-04-25T06:05:38.884Z,1.80
2023-04-25T06:08:07.003Z,2.80
2023-04-25T06:10:35.022Z,2.10
2023-04-25T06:13:03.262Z,2.50
2023-04-25T06:15:33.415Z,2.00
2023-04-25T06:18:01.430Z,2.55
2023-04-25T06:20:29.575Z,1.90
2023-04-25T06:22:58.214Z,1.70
2023-04-25T06:25:26.108Z,2.03
2023-04-25T06:27:54.009Z,2.25
2023-04-25T06:30:24.543Z,2.00
2023-04-25T06:32:53.963Z,1.70
2023-04-25T06:35:22.109Z,1.70
2023-04-25T06:37:50.022Z,2.33
2023-04-25T06:40:18.391Z,1.80
2023-04-25T06:42:46.366Z,2.15
2023-04-25T06:45:14.329Z,2.40
2023-04-25T06:47:42.361Z,2.47
2023-04-25T06:50:12.410Z,1.90
2023-04-25T06:52:40.483Z,2.03
2023-04-25T06:55:09.110Z,1.80
2023-04-25T06:57:37.068Z,1.80
2023-04-25T07:00:09.369Z,1.95
2023-04-25T07:02:37.489Z,1.80
2023-04-25T07:05:06.393Z,2.00
2023-04-25T07:07:35.649Z,2.27
2023-04-25T07:10:03.709Z,1.70
2023-04-25T07:12:31.781Z,2.03
2023-04-25T07:14:59.755Z,1.48
2023-04-25T07:17:27.745Z,2.08
2023-04-25T07:19:55.752Z,1.80
2023-04-25T07:22:23.720Z,1.70
2023-04-25T07:24:54.184Z,2.00
2023-04-25T07:27:22.219Z,1.70
2023-04-25T07:29:50.174Z,2.00
2023-04-25T07:32:18.272Z,2.03
2023-04-25T07:34:46.285Z,1.92
2023-04-25T07:37:15.106Z,2.03
2023-04-25T07:39:43.238Z,2.40
2023-04-25T07:42:12.627Z,2.30
2023-04-25T07:44:41.123Z,1.70
2023-04-25T07:47:09.408Z,1.90
2023-04-25T07:49:37.551Z,1.70
2023-04-25T07:52:07.263Z,2.08
2023-04-25T07:54:35.411Z,1.80
2023-04-25T07:57:03.478Z,1.80
2023-04-25T07:59:32.777Z,1.30
2023-04-25T08:02:01.128Z,1.60
2023-04-25T08:04:29.566Z,1.70
2023-04-25T08:06:57.644Z,1.50
2023-04-25T08:09:25.879Z,1.67
2023-04-25T08:11:53.899Z,1.35
2023-04-25T08:14:21.887Z,1.92
2023-04-25T08:16:51.354Z,1.60
2023-04-25T08:19:19.322Z,1.50
2023-04-25T08:21:47.368Z,2.75
2023-04-25T08:24:15.345Z,1.20
2023-04-25T08:26:43.339Z,1.40
2023-04-25T08:29:11.289Z,2.08
2023-04-25T08:31:39.497Z,1.50
2023-04-25T08:34:08.981Z,1.77
2023-04-25T08:36:39.707Z,1.92
2023-04-25T08:39:08.405Z,1.65
2023-04-25T08:41:38.467Z,2.20
2023-04-25T08:44:08.616Z,1.63
2023-04-25T08:46:36.880Z,1.48
2023-04-25T08:49:04.823Z,1.43
2023-04-25T08:51:34.974Z,1.50
2023-04-25T08:54:27.205Z,1.60
2023-04-25T09:03:48.895Z,1.80
2023-04-25T09:06:19.807Z,1.40
2023-04-25T09:08:49.077Z,1.60
2023-04-25T09:11:17.467Z,1.50
2023-04-25T09:13:45.996Z,1.80
2023-04-25T09:16:15.653Z,1.55
2023-04-25T09:18:48.495Z,1.30
2023-04-25T09:21:16.985Z,1.40
2023-04-25T09:23:48.808Z,1.58
2023-04-25T09:26:19.050Z,1.30
2023-04-25T09:28:48.818Z,1.30
2023-04-25T09:31:24.228Z,1.20
2023-04-25T09:33:54.577Z,1.27
2023-04-25T09:36:28.676Z,1.10
2023-04-25T09:38:58.137Z,1.20
2023-04-25T09:41:26.898Z,1.48
2023-04-25T09:43:59.685Z,1.52
2023-04-25T09:46:34.662Z,1.60
2023-04-25T09:49:08.996Z,1.52
2023-04-25T09:51:36.893Z,1.50
2023-04-25T09:54:06.540Z,1.40
2023-04-25T09:56:38.378Z,1.80
2023-04-25T09:59:07.654Z,1.50
2023-04-25T10:01:36.747Z,1.60
2023-04-25T10:04:08.022Z,1.45
2023-04-25T10:06:37.462Z,1.70
2023-04-25T10:09:08.689Z,1.63
2023-04-25T10:11:37.802Z,1.30
2023-04-25T10:14:06.827Z,2.15
2023-04-25T10:16:35.728Z,1.67
2023-04-25T10:19:04.161Z,1.80
2023-04-25T10:21:35.800Z,1.30
2023-04-25T10:24:06.586Z,1.40
2023-04-25T10:26:34.611Z,1.15
2023-04-25T10:29:03.808Z,1.60
2023-04-25T10:31:32.441Z,1.50
2023-04-25T10:34:01.899Z,1.80
2023-04-25T10:36:33.851Z,1.43
2023-04-25T10:39:09.825Z,1.50
2023-04-25T10:41:54.043Z,1.50
2023-04-25T10:44:21.977Z,1.60
2023-04-25T10:46:50.160Z,1.60
2023-04-25T10:49:32.344Z,1.73
2023-04-25T10:52:19.831Z,1.80
2023-04-25T10:54:54.837Z,1.58
2023-04-25T10:57:30.755Z,1.85
2023-04-25T11:00:01.835Z,1.90
2023-04-25T11:02:30.659Z,1.98
2023-04-25T11:04:58.972Z,1.60
2023-04-25T11:07:36.490Z,1.50
2023-04-25T11:10:07.434Z,1.65
2023-04-25T11:12:35.654Z,1.48
2023-04-25T11:15:05.006Z,1.13
2023-04-25T11:17:33.129Z,1.65
2023-04-25T11:20:01.179Z,1.58
2023-04-25T11:22:30.846Z,1.55
2023-04-25T11:24:58.758Z,1.40
2023-04-25T11:27:27.994Z,1.52
2023-04-25T11:29:55.840Z,1.48
2023-04-25T11:32:24.769Z,2.30
2023-04-25T11:34:54.900Z,1.40
2023-04-25T11:37:23.503Z,1.70
2023-04-25T11:39:51.399Z,1.40
2023-04-25T11:42:19.341Z,1.50
2023-04-25T11:44:48.942Z,1.60
2023-04-25T11:47:16.857Z,2.15
2023-04-25T11:49:44.806Z,1.40
2023-04-25T11:52:12.880Z,1.95
2023-04-25T11:54:40.817Z,2.03
2023-04-25T11:57:08.822Z,1.60
2023-04-25T11:59:36.766Z,1.63
2023-04-25T12:02:08.049Z,1.77
2023-04-25T12:04:36.870Z,1.58
2023-04-25T12:07:05.232Z,1.30
2023-04-25T12:09:34.579Z,1.27
2023-04-25T12:12:04.778Z,1.40
2023-04-25T12:14:34.234Z,1.40
2023-04-25T12:17:03.611Z,1.42
2023-04-25T12:19:36.543Z,1.42
2023-04-25T12:22:05.466Z,1.60
2023-04-25T12:24:38.588Z,1.70
2023-04-25T12:27:09.103Z,1.35
2023-04-25T12:29:49.190Z,1.50
2023-04-25T12:32:17.665Z,1.80
2023-04-25T12:34:47.106Z,1.70
2023-04-25T12:37:15.493Z,2.10
2023-04-25T12:39:43.552Z,1.90
2023-04-25T12:42:12.717Z,1.40
2023-04-25T12:44:41.353Z,1.70
2023-04-25T12:47:09.416Z,1.38
2023-04-25T12:49:37.321Z,1.80
2023-04-25T12:52:06.618Z,1.60
2023-04-25T12:54:34.487Z,1.67
2023-04-25T12:57:03.743Z,1.55
2023-04-25T12:59:31.844Z,1.70
2023-04-25T13:01:59.733Z,1.30
2023-04-25T13:04:27.803Z,1.40
2023-04-25T13:06:56.128Z,1.40
2023-04-25T13:09:25.482Z,1.70
2023-04-25T13:11:56.099Z,1.60
2023-04-25T13:14:25.326Z,1.50
2023-04-25T13:16:53.319Z,1.50
2023-04-25T13:19:21.996Z,1.40
2023-04-25T13:21:49.866Z,1.40
2023-04-25T13:24:17.885Z,1.63
2023-04-25T13:26:47.168Z,1.80
2023-04-25T13:29:15.118Z,1.60
2023-04-25T13:31:43.191Z,1.90
2023-04-25T13:34:11.314Z,1.50
2023-04-25T13:36:39.295Z,1.90
2023-04-25T13:39:07.407Z,1.40
2023-04-25T13:41:35.571Z,1.75
2023-04-25T13:44:04.858Z,1.50
2023-04-25T13:49:11.990Z,1.52
2023-04-25T13:51:40.539Z,1.85
2023-04-25T13:54:08.600Z,1.50
2023-04-25T13:56:36.720Z,1.40
2023-04-25T13:59:05.990Z,1.65
2023-04-25T14:01:36.403Z,1.70
2023-04-25T14:04:05.538Z,1.30
2023-04-25T14:06:33.978Z,1.50
2023-04-25T14:09:02.514Z,1.45
2023-04-25T14:11:30.529Z,1.40
2023-04-25T14:13:58.402Z,1.80
2023-04-25T14:16:27.688Z,1.50
2023-04-25T14:18:56.474Z,1.55
2023-04-25T14:21:24.448Z,2.08
2023-04-25T14:23:52.685Z,1.55
2023-04-25T14:26:20.934Z,1.40
2023-04-25T14:28:48.781Z,1.65
2023-04-25T14:31:16.690Z,1.60
2023-04-25T14:33:46.619Z,1.65
2023-04-25T14:36:15.268Z,1.70
2023-04-25T14:38:43.204Z,1.42
2023-04-25T14:41:11.607Z,1.42
2023-04-25T14:43:40.882Z,1.35
2023-04-25T14:46:08.957Z,1.67
2023-04-25T14:48:37.102Z,1.60
2023-04-25T14:51:06.536Z,1.40
2023-04-25T14:53:34.448Z,1.55
2023-04-25T14:56:02.269Z,1.67
2023-04-25T14:58:30.196Z,1.50
2023-04-25T15:00:58.174Z,1.77
2023-04-25T15:03:26.402Z,1.70
2023-04-25T15:05:55.295Z,1.45
2023-04-25T15:08:24.658Z,1.40
2023-04-25T15:10:52.858Z,1.70
2023-04-25T15:13:21.149Z,1.70
2023-04-25T15:15:52.195Z,1.20
2023-04-25T15:18:22.871Z,1.50
2023-04-25T15:20:51.207Z,1.98
2023-04-25T15:23:19.410Z,1.95
2023-04-25T15:25:49.177Z,1.75
2023-04-25T15:28:17.383Z,1.90
2023-04-25T15:30:45.899Z,1.77
2023-04-25T15:33:14.332Z,2.08
2023-04-25T15:35:42.299Z,1.60
2023-04-25T15:38:11.328Z,2.00
2023-04-25T15:40:39.437Z,1.80
2023-04-25T15:43:15.266Z,1.70
2023-04-25T15:45:43.540Z,1.50
2023-04-25T15:48:11.866Z,1.70
2023-04-25T15:50:39.747Z,1.70
2023-04-25T15:53:07.755Z,1.40
2023-04-25T15:55:36.243Z,1.50
2023-04-25T15:58:04.306Z,1.73
2023-04-25T16:00:36.163Z,1.88
2023-04-25T16:03:04.352Z,1.47
2023-04-25T16:05:34.360Z,1.60
2023-04-25T16:08:03.653Z,1.50
2023-04-25T16:10:31.602Z,1.88
2023-04-25T16:12:59.508Z,1.45
2023-04-25T16:15:27.527Z,1.38
2023-04-25T16:17:56.882Z,1.67
2023-04-25T16:20:24.983Z,1.40
2023-04-25T16:22:52.908Z,1.65
2023-04-25T16:25:21.793Z,1.90
2023-04-25T16:27:49.739Z,1.95
2023-04-25T16:30:17.591Z,1.75
2023-04-25T16:32:45.936Z,1.70
2023-04-25T16:35:15.285Z,2.00
2023-04-25T16:37:43.215Z,1.83
2023-04-25T16:40:12.214Z,1.60
2023-04-25T16:42:40.184Z,1.42
2023-04-25T16:45:09.036Z,1.70
2023-04-25T16:47:37.228Z,1.60
2023-04-25T16:50:05.967Z,1.70
2023-04-25T16:52:35.281Z,1.83
2023-04-25T16:55:03.189Z,1.67
2023-04-25T16:57:31.238Z,1.50
2023-04-25T16:59:59.134Z,1.88
2023-04-25T17:02:27.175Z,1.80
2023-04-25T17:04:55.164Z,2.20
2023-04-25T17:07:24.592Z,1.45
2023-04-25T17:09:53.952Z,2.00
2023-04-25T17:12:22.344Z,2.13
2023-04-25T17:14:50.686Z,1.80
2023-04-25T17:17:19.428Z,2.22
2023-04-25T17:19:47.458Z,1.30
2023-04-25T17:22:15.761Z,1.93
2023-04-25T17:24:43.809Z,1.70
2023-04-25T17:27:13.352Z,2.03
2023-04-25T17:29:41.351Z,2.20
2023-04-25T17:32:09.544Z,1.63
2023-04-25T17:34:40.157Z,1.70
2023-04-25T17:37:11.666Z,1.90
2023-04-25T17:39:39.593Z,1.92
2023-04-25T17:42:08.395Z,1.95
2023-04-25T17:44:37.705Z,2.15
2023-04-25T17:47:07.979Z,1.80
2023-04-25T17:49:36.857Z,1.50
2023-04-25T17:52:05.032Z,1.65
2023-04-25T17:54:32.995Z,2.00
2023-04-25T17:57:01.004Z,2.05
2023-04-25T17:59:28.991Z,2.30
2023-04-25T18:01:59.929Z,2.15
2023-04-25T18:04:28.049Z,1.80
2023-04-25T18:06:56.728Z,2.38
2023-04-25T18:09:25.145Z,2.42
2023-04-25T18:11:54.283Z,1.80
2023-04-25T18:14:23.076Z,2.23
2023-04-25T18:16:52.656Z,2.08
2023-04-25T18:19:22.651Z,2.00
2023-04-25T18:21:51.936Z,1.90
2023-04-25T18:24:20.132Z,2.00
2023-04-25T18:26:49.634Z,2.15
2023-04-25T18:29:32.199Z,2.30
2023-04-25T18:32:01.967Z,2.30
2023-04-25T18:34:31.466Z,2.25
2023-04-25T18:36:59.489Z,2.40
2023-04-25T18:39:27.959Z,2.47
2023-04-25T18:42:04.337Z,2.17
2023-04-25T18:44:39.366Z,2.13
2023-04-25T18:47:07.776Z,2.10
2023-04-25T18:49:37.696Z,2.50
2023-04-25T18:52:07.371Z,2.10
2023-04-25T18:54:35.339Z,2.13
2023-04-25T18:57:03.484Z,2.60
2023-04-25T18:59:31.597Z,2.60
2023-04-25T19:02:00.531Z,2.30
2023-04-25T19:04:29.068Z,2.40
2023-04-25T19:06:58.427Z,2.13
2023-04-25T19:09:26.308Z,2.40
2023-04-25T19:11:54.420Z,2.45
2023-04-25T19:14:22.292Z,2.10
2023-04-25T19:16:50.208Z,2.60
2023-04-25T19:19:18.072Z,2.50
2023-04-25T19:21:45.989Z,2.38
2023-04-25T19:24:15.267Z,1.93
2023-04-25T19:26:43.200Z,2.33
2023-04-25T19:29:14.233Z,2.50
2023-04-25T19:31:44.404Z,2.50
2023-04-25T19:34:12.979Z,2.80
2023-04-25T19:36:43.948Z,2.60
2023-04-25T19:39:12.037Z,2.50
2023-04-25T19:41:41.344Z,3.13
2023-04-25T19:44:10.304Z,3.07
2023-04-25T19:46:38.667Z,3.08
2023-04-25T19:49:07.817Z,2.80
2023-04-25T19:51:37.579Z,2.55
2023-04-25T19:54:05.858Z,2.70
2023-04-25T19:56:33.911Z,2.95
2023-04-25T19:59:03.258Z,3.97
2023-04-25T20:01:31.484Z,3.10
2023-04-25T20:03:59.517Z,3.38
2023-04-25T20:06:28.765Z,3.20
2023-04-25T20:08:56.695Z,2.97
2023-04-25T20:11:25.958Z,3.50
2023-04-25T20:13:54.120Z,3.23
2023-04-25T20:16:23.711Z,3.33
2023-04-25T20:18:53.204Z,3.35
2023-04-25T20:21:21.529Z,3.40
2023-04-25T20:23:49.385Z,3.47
2023-04-25T20:26:17.254Z,3.67
2023-04-25T20:28:45.181Z,3.60
2023-04-25T20:31:13.080Z,3.80
2023-04-25T20:33:43.666Z,3.58
2023-04-25T20:36:11.567Z,3.72
2023-04-25T20:38:39.494Z,3.72
2023-04-25T20:41:07.531Z,4.57
2023-04-25T20:43:37.324Z,3.70
2023-04-25T20:46:05.598Z,3.90
2023-04-25T20:48:33.565Z,3.72
2023-04-25T20:51:03.965Z,3.80
2023-04-25T20:53:31.840Z,3.58
2023-04-25T20:55:59.767Z,3.78
2023-04-25T20:58:28.588Z,3.50
2023-04-25T21:00:56.969Z,3.60
2023-04-25T21:03:27.027Z,3.88
2023-04-25T21:05:55.046Z,3.40
2023-04-25T21:08:24.364Z,3.75
2023-04-25T21:10:53.983Z,4.00
2023-04-25T21:13:22.661Z,3.45
2023-04-25T21:15:51.524Z,3.53
2023-04-25T21:18:19.425Z,3.80
2023-04-25T21:20:47.329Z,3.55
2023-04-25T21:23:15.614Z,3.20
2023-04-25T21:25:44.931Z,4.03
2023-04-25T21:28:13.109Z,3.50
2023-04-25T21:30:42.359Z,3.50
2023-04-25T21:33:10.362Z,3.50
2023-04-25T21:35:38.218Z,3.40
2023-04-25T21:38:07.408Z,3.80
2023-04-25T21:40:35.678Z,3.88
2023-04-25T21:43:04.939Z,3.50
2023-04-25T21:45:32.836Z,4.50
2023-04-25T21:48:00.731Z,4.22
2023-04-25T21:50:29.427Z,3.70
2023-04-25T21:52:58.916Z,3.78
2023-04-25T21:55:27.463Z,4.00
2023-04-25T21:57:55.440Z,4.40
2023-04-25T22:00:27.482Z,3.83
2023-04-25T22:02:56.320Z,3.83
2023-04-25T22:05:26.618Z,4.18
2023-04-25T22:07:57.070Z,4.05
2023-04-25T22:10:26.129Z,4.68
2023-04-25T22:12:54.140Z,4.10
2023-04-25T22:15:23.864Z,3.60
2023-04-25T22:17:55.238Z,3.80
2023-04-25T22:20:26.447Z,4.03
2023-04-25T22:22:55.618Z,4.00
2023-04-25T22:25:23.878Z,4.30
2023-04-25T22:27:52.359Z,4.00
2023-04-25T22:30:20.268Z,4.00
2023-04-25T22:32:48.196Z,4.00
2023-04-25T22:35:17.548Z,4.10
2023-04-25T22:37:45.466Z,4.50
2023-04-25T22:40:14.230Z,4.70
2023-04-25T22:42:43.276Z,4.10
2023-04-25T22:45:12.269Z,3.85
2023-04-25T22:47:41.652Z,4.60
2023-04-25T22:50:13.615Z,4.10
2023-04-25T22:52:43.292Z,4.35
2023-04-25T22:55:12.185Z,4.38
2023-04-25T22:57:40.809Z,3.83
2023-04-25T23:00:15.759Z,3.97
2023-04-25T23:02:45.302Z,4.20
2023-04-25T23:05:14.122Z,3.77
2023-04-25T23:07:44.590Z,4.10
2023-04-25T23:10:13.043Z,4.07
2023-04-25T23:12:41.080Z,3.80
2023-04-25T23:15:10.157Z,3.78
2023-04-25T23:17:38.237Z,4.15
2023-04-25T23:20:10.167Z,3.83
2023-04-25T23:22:38.852Z,4.50
2023-04-25T23:25:09.932Z,4.72
2023-04-25T23:27:38.148Z,4.13
2023-04-25T23:30:07.113Z,3.75
2023-04-25T23:32:35.222Z,4.00
2023-04-25T23:35:04.737Z,4.40
2023-04-25T23:37:34.645Z,4.40
2023-04-25T23:40:02.467Z,4.30
2023-04-25T23:42:31.717Z,3.80
2023-04-25T23:44:59.585Z,3.90
2023-04-25T23:47:27.482Z,4.00
2023-04-25T23:49:55.533Z,4.03
2023-04-25T23:52:23.580Z,3.97
2023-04-25T23:54:51.638Z,4.38
2023-04-25T23:57:19.514Z,4.18
2023-04-25T23:59:48.697Z,4.00
